createdAt,value
2023-02-16T00:00:38.436Z,101782.44
2023-02-16T00:03:05.032Z,101786.84
2023-02-16T00:05:34.900Z,101784.16
2023-02-16T00:08:02.177Z,101783.19
2023-02-16T00:10:35.233Z,101781.53
2023-02-16T00:13:24.604Z,101783.34
2023-02-16T00:15:51.216Z,101779.88
2023-02-16T00:18:20.775Z,101784.34
2023-02-16T00:20:49.085Z,101775.66
2023-02-16T00:23:15.744Z,101780.06
2023-02-16T00:25:42.372Z,101777.50
2023-02-16T00:28:15.945Z,101775.78
2023-02-16T00:30:42.560Z,101777.56
2023-02-16T00:33:20.868Z,101774.09
2023-02-16T00:35:48.203Z,101774.09
2023-02-16T00:38:15.020Z,101764.38
2023-02-16T00:40:42.633Z,101764.41
2023-02-16T00:43:22.721Z,101755.66
2023-02-16T00:45:49.427Z,101766.19
2023-02-16T00:48:16.308Z,101766.19
2023-02-16T00:50:42.878Z,101762.66
2023-02-16T00:53:10.499Z,101760.03
2023-02-16T00:55:38.798Z,101761.75
2023-02-16T00:58:30.567Z,101762.59
2023-02-16T01:01:09.789Z,101753.84
2023-02-16T01:03:37.421Z,101752.13
2023-02-16T01:06:22.585Z,101751.28
2023-02-16T01:09:07.401Z,101746.03
2023-02-16T01:11:34.155Z,101741.72
2023-02-16T01:14:00.803Z,101744.34
2023-02-16T01:16:38.569Z,101740.81
2023-02-16T01:19:05.716Z,101745.22
2023-02-16T01:21:33.522Z,101745.25
2023-02-16T01:24:00.708Z,101744.38
2023-02-16T01:26:27.426Z,101748.78
2023-02-16T01:28:53.987Z,101734.84
2023-02-16T01:31:20.664Z,101741.06
2023-02-16T01:33:47.338Z,101735.84
2023-02-16T01:36:26.902Z,101741.13
2023-02-16T01:38:53.510Z,101735.94
2023-02-16T01:41:57.552Z,101733.31
2023-02-16T01:44:39.057Z,101734.22
2023-02-16T01:47:13.009Z,101726.22
2023-02-16T01:49:39.721Z,101727.06
2023-02-16T01:52:19.355Z,101726.16
2023-02-16T01:54:52.518Z,101723.53
2023-02-16T01:57:39.708Z,101728.00
2023-02-16T02:00:16.173Z,101726.25
2023-02-16T02:02:54.836Z,101719.25
2023-02-16T02:05:37.616Z,101715.81
2023-02-16T02:08:16.185Z,101706.22
2023-02-16T02:11:06.228Z,101707.06
2023-02-16T02:13:38.045Z,101703.53
2023-02-16T02:16:06.141Z,101700.94
2023-02-16T02:18:33.316Z,101701.00
2023-02-16T02:21:21.259Z,101699.28
2023-02-16T02:24:25.029Z,101690.53
2023-02-16T02:27:09.848Z,101700.16
2023-02-16T02:29:59.863Z,101700.13
2023-02-16T02:33:03.331Z,101694.84
2023-02-16T02:35:51.294Z,101693.16
2023-02-16T02:38:53.590Z,101687.03
2023-02-16T02:41:49.180Z,101690.47
2023-02-16T02:44:20.962Z,101690.41
2023-02-16T02:46:48.788Z,101694.84
2023-02-16T02:49:15.674Z,101692.22
2023-02-16T02:51:42.196Z,101703.66
2023-02-16T02:54:30.025Z,101699.31
2023-02-16T02:57:17.543Z,101686.13
2023-02-16T03:00:09.442Z,101690.53
2023-02-16T03:02:37.286Z,101688.81
2023-02-16T03:05:06.991Z,101694.97
2023-02-16T03:07:47.889Z,101693.22
2023-02-16T03:10:42.452Z,101687.97
2023-02-16T03:13:25.960Z,101692.31
2023-02-16T03:15:57.083Z,101689.69
2023-02-16T03:18:44.870Z,101687.97
2023-02-16T03:21:33.216Z,101688.81
2023-02-16T03:24:21.603Z,101686.16
2023-02-16T03:27:09.365Z,101674.81
2023-02-16T03:29:38.478Z,101677.47
2023-02-16T03:32:06.375Z,101675.84
2023-02-16T03:34:36.267Z,101684.63
2023-02-16T03:37:05.556Z,101682.13
2023-02-16T03:39:32.724Z,101674.31
2023-02-16T03:41:59.339Z,101676.94
2023-02-16T03:44:25.970Z,101685.69
2023-02-16T03:46:53.749Z,101683.94
2023-02-16T03:49:21.465Z,101675.13
2023-02-16T03:51:48.070Z,101678.66
2023-02-16T03:54:14.688Z,101676.03
2023-02-16T03:56:41.336Z,101676.94
2023-02-16T03:59:08.050Z,101682.19
2023-02-16T04:01:34.669Z,101676.94
2023-02-16T04:04:01.298Z,101678.72
2023-02-16T04:06:27.922Z,101682.22
2023-02-16T04:08:54.750Z,101676.09
2023-02-16T04:11:39.931Z,101679.63
2023-02-16T04:14:06.564Z,101670.00
2023-02-16T04:16:33.254Z,101668.25
2023-02-16T04:18:59.868Z,101681.44
2023-02-16T04:21:26.521Z,101674.44
2023-02-16T04:23:53.149Z,101669.19
2023-02-16T04:26:19.710Z,101672.75
2023-02-16T04:28:46.396Z,101671.88
2023-02-16T04:31:13.192Z,101675.38
2023-02-16T04:33:40.020Z,101675.38
2023-02-16T04:36:07.042Z,101685.00
2023-02-16T04:38:33.592Z,101689.34
2023-02-16T04:41:00.317Z,101687.59
2023-02-16T04:43:27.018Z,101688.41
2023-02-16T04:45:53.594Z,101683.13
2023-02-16T04:48:20.183Z,101683.13
2023-02-16T04:50:46.746Z,101678.75
2023-02-16T04:53:13.374Z,101679.63
2023-02-16T04:55:39.947Z,101677.88
2023-02-16T04:58:06.566Z,101684.03
2023-02-16T05:00:35.658Z,101683.13
2023-02-16T05:03:03.127Z,101684.88
2023-02-16T05:05:29.792Z,101676.06
2023-02-16T05:07:56.349Z,101670.81
2023-02-16T05:10:22.914Z,101671.72
2023-02-16T05:13:08.036Z,101665.59
2023-02-16T05:15:35.502Z,101671.84
2023-02-16T05:18:02.166Z,101673.66
2023-02-16T05:20:47.299Z,101672.78
2023-02-16T05:23:13.830Z,101683.31
2023-02-16T05:25:40.407Z,101672.81
2023-02-16T05:28:07.008Z,101673.69
2023-02-16T05:30:33.875Z,101673.66
2023-02-16T05:33:00.538Z,101668.41
2023-02-16T05:35:27.832Z,101664.88
2023-02-16T05:37:54.373Z,101666.59
2023-02-16T05:40:21.006Z,101667.47
2023-02-16T05:42:47.558Z,101670.97
2023-02-16T05:45:14.109Z,101673.56
2023-02-16T05:47:40.624Z,101670.09
2023-02-16T05:50:07.952Z,101670.09
2023-02-16T05:52:34.485Z,101668.31
2023-02-16T05:55:01.049Z,101675.38
2023-02-16T05:57:27.600Z,101670.13
2023-02-16T05:59:54.159Z,101658.78
2023-02-16T06:02:20.806Z,101669.28
2023-02-16T06:04:47.427Z,101667.53
2023-02-16T06:07:15.022Z,101663.16
2023-02-16T06:09:41.712Z,101658.78
2023-02-16T06:12:08.354Z,101660.53
2023-02-16T06:14:34.948Z,101660.53
2023-02-16T06:17:01.591Z,101662.31
2023-02-16T06:19:28.189Z,101663.16
2023-02-16T06:21:54.804Z,101668.44
2023-02-16T06:24:21.404Z,101666.66
2023-02-16T06:26:47.952Z,101670.16
2023-02-16T06:29:14.538Z,101670.13
2023-02-16T06:31:41.247Z,101665.72
2023-02-16T06:34:08.036Z,101670.09
2023-02-16T06:36:34.672Z,101669.19
2023-02-16T06:39:01.372Z,101672.66
2023-02-16T06:41:40.063Z,101664.75
2023-02-16T06:44:09.438Z,101664.72
2023-02-16T06:46:36.205Z,101662.91
2023-02-16T06:49:02.893Z,101659.31
2023-02-16T06:51:29.835Z,101661.88
2023-02-16T06:53:56.565Z,101666.22
2023-02-16T06:56:23.558Z,101651.22
2023-02-16T06:58:50.363Z,101659.03
2023-02-16T07:01:22.985Z,101647.53
2023-02-16T07:03:51.073Z,101648.31
2023-02-16T07:06:18.398Z,101648.25
2023-02-16T07:08:45.511Z,101646.41
2023-02-16T07:11:12.585Z,101641.00
2023-02-16T07:13:39.289Z,101644.34
2023-02-16T07:16:07.549Z,101646.81
2023-02-16T07:18:34.411Z,101647.56
2023-02-16T07:21:01.303Z,101647.41
2023-02-16T07:23:28.047Z,101649.94
2023-02-16T07:25:54.683Z,101648.03
2023-02-16T07:28:21.228Z,101653.16
2023-02-16T07:30:47.868Z,101653.88
2023-02-16T07:33:18.859Z,101652.78
2023-02-16T07:35:45.448Z,101653.47
2023-02-16T07:38:12.300Z,101640.13
2023-02-16T07:40:39.124Z,101631.97
2023-02-16T07:43:06.590Z,101628.22
2023-02-16T07:45:34.018Z,101624.50
2023-02-16T07:48:02.181Z,101623.34
2023-02-16T07:50:28.768Z,101628.31
2023-02-16T07:52:55.400Z,101626.19
2023-02-16T07:55:22.026Z,101625.81
2023-02-16T07:57:49.544Z,101625.50
2023-02-16T08:00:16.635Z,101628.63
2023-02-16T08:02:43.308Z,101628.22
2023-02-16T08:05:10.065Z,101633.94
2023-02-16T08:07:36.663Z,101624.69
2023-02-16T08:10:03.264Z,101630.41
2023-02-16T08:12:29.815Z,101627.38
2023-02-16T08:14:56.407Z,101628.81
2023-02-16T08:17:23.078Z,101632.72
2023-02-16T08:19:50.406Z,101633.22
2023-02-16T08:22:18.354Z,101628.28
2023-02-16T08:24:45.113Z,101632.16
2023-02-16T08:27:11.740Z,101625.41
2023-02-16T08:29:38.508Z,101622.13
2023-02-16T08:32:07.859Z,101629.53
2023-02-16T08:34:35.511Z,101625.38
2023-02-16T08:37:02.411Z,101628.31
2023-02-16T08:39:31.400Z,101631.25
2023-02-16T08:41:58.362Z,101630.69
2023-02-16T08:44:25.918Z,101631.03
2023-02-16T08:46:55.067Z,101623.13
2023-02-16T08:49:24.108Z,101618.81
2023-02-16T08:51:54.743Z,101629.69
2023-02-16T08:54:33.325Z,101630.69
2023-02-16T08:57:02.760Z,101629.13
2023-02-16T08:59:29.862Z,101625.03
2023-02-16T09:01:58.169Z,101625.41
2023-02-16T09:04:25.834Z,101625.94
2023-02-16T09:06:53.364Z,101620.13
2023-02-16T09:09:20.654Z,101614.97
2023-02-16T09:11:48.157Z,101616.84
2023-02-16T09:14:17.269Z,101615.19
2023-02-16T09:16:45.801Z,101619.03
2023-02-16T09:19:19.315Z,101618.25
2023-02-16T09:21:47.354Z,101608.44
2023-02-16T09:24:13.960Z,101611.00
2023-02-16T09:26:42.954Z,101604.53
2023-02-16T09:29:12.400Z,101613.63
2023-02-16T09:31:39.736Z,101601.31
2023-02-16T09:34:17.889Z,101601.72
2023-02-16T09:36:45.281Z,101604.59
2023-02-16T09:39:12.335Z,101599.78
2023-02-16T09:41:57.106Z,101604.53
2023-02-16T09:44:42.252Z,101609.94
2023-02-16T09:47:26.004Z,101601.91
2023-02-16T09:49:56.890Z,101607.34
2023-02-16T09:52:37.782Z,101596.47
2023-02-16T09:55:16.330Z,101590.81
2023-02-16T09:57:58.410Z,101592.31
2023-02-16T10:00:33.867Z,101586.72
2023-02-16T10:03:29.308Z,101582.13
2023-02-16T10:05:56.955Z,101581.56
2023-02-16T10:08:31.290Z,101581.63
2023-02-16T10:11:32.332Z,101574.91
2023-02-16T10:14:06.454Z,101572.91
2023-02-16T10:16:39.629Z,101571.53
2023-02-16T10:19:21.469Z,101565.91
2023-02-16T10:21:53.355Z,101564.13
2023-02-16T10:24:20.446Z,101563.09
2023-02-16T10:26:59.728Z,101558.47
2023-02-16T10:29:26.971Z,101552.19
2023-02-16T10:31:59.372Z,101555.53
2023-02-16T10:34:50.386Z,101550.47
2023-02-16T10:37:47.449Z,101543.88
2023-02-16T10:40:30.228Z,101543.03
2023-02-16T10:43:07.341Z,101535.03
2023-02-16T10:45:55.259Z,101534.47
2023-02-16T10:48:23.450Z,101532.59
2023-02-16T10:50:50.133Z,101533.94
2023-02-16T10:53:21.874Z,101530.78
2023-02-16T10:55:48.412Z,101524.75
2023-02-16T10:58:24.416Z,101531.75
2023-02-16T11:01:00.961Z,101527.44
2023-02-16T11:03:36.071Z,101519.34
2023-02-16T11:06:25.524Z,101514.03
2023-02-16T11:08:59.288Z,101517.53
2023-02-16T11:11:27.970Z,101508.63
2023-02-16T11:14:18.702Z,101512.06
2023-02-16T11:16:46.630Z,101506.41
2023-02-16T11:19:22.441Z,101516.19
2023-02-16T11:21:55.936Z,101502.56
2023-02-16T11:24:35.158Z,101511.06
2023-02-16T11:27:06.247Z,101506.94
2023-02-16T11:29:34.124Z,101482.38
2023-02-16T11:32:06.442Z,101488.91
2023-02-16T11:34:40.276Z,101473.16
2023-02-16T11:37:25.051Z,101483.78
2023-02-16T11:39:55.418Z,101476.91
2023-02-16T11:42:44.330Z,101475.22
2023-02-16T11:45:22.678Z,101484.97
2023-02-16T11:47:55.987Z,101472.53
2023-02-16T11:50:35.684Z,101465.09
2023-02-16T11:53:14.843Z,101463.56
2023-02-16T11:55:44.501Z,101459.81
2023-02-16T11:58:24.665Z,101451.69
2023-02-16T12:01:19.052Z,101453.06
2023-02-16T12:04:03.635Z,101442.16
2023-02-16T12:06:49.678Z,101448.50
2023-02-16T12:09:43.656Z,101441.00
2023-02-16T12:12:17.851Z,101429.09
2023-02-16T12:14:52.840Z,101424.09
2023-02-16T12:17:19.352Z,101434.94
2023-02-16T12:19:51.591Z,101431.13
2023-02-16T12:22:32.580Z,101431.00
2023-02-16T12:25:07.932Z,101410.81
2023-02-16T12:27:51.027Z,101405.69
2023-02-16T12:30:33.997Z,101409.50
2023-02-16T12:33:15.556Z,101415.50
2023-02-16T12:35:59.752Z,101400.34
2023-02-16T12:38:51.993Z,101402.31
2023-02-16T12:41:37.703Z,101394.84
2023-02-16T12:44:10.962Z,101398.31
2023-02-16T12:46:46.877Z,101393.69
2023-02-16T12:49:24.410Z,101398.19
2023-02-16T12:51:57.377Z,101384.00
2023-02-16T12:54:57.524Z,101386.97
2023-02-16T12:57:30.791Z,101373.44
2023-02-16T13:00:04.337Z,101364.03
2023-02-16T13:02:43.443Z,101367.50
2023-02-16T13:05:32.673Z,101376.72
2023-02-16T13:08:17.684Z,101351.25
2023-02-16T13:11:03.835Z,101351.94
2023-02-16T13:13:34.412Z,101345.75
2023-02-16T13:16:08.304Z,101350.56
2023-02-16T13:18:44.391Z,101352.09
2023-02-16T13:21:42.500Z,101349.28
2023-02-16T13:24:18.484Z,101340.00
2023-02-16T13:26:57.345Z,101328.72
2023-02-16T13:29:47.962Z,101332.78
2023-02-16T13:32:41.503Z,101319.78
2023-02-16T13:35:30.062Z,101336.22
2023-02-16T13:38:15.729Z,101321.56
2023-02-16T13:41:06.579Z,101316.47
2023-02-16T13:43:45.380Z,101326.53
2023-02-16T13:46:30.719Z,101322.97
2023-02-16T13:48:58.752Z,101327.78
2023-02-16T13:51:29.235Z,101325.56
2023-02-16T13:54:02.202Z,101312.69
2023-02-16T13:56:29.752Z,101319.78
2023-02-16T13:59:20.456Z,101324.41
2023-02-16T14:01:50.672Z,101312.41
2023-02-16T14:04:23.251Z,101319.13
2023-02-16T14:07:15.041Z,101314.66
2023-02-16T14:09:41.534Z,101308.44
2023-02-16T14:12:14.470Z,101318.50
2023-02-16T14:14:47.945Z,101314.88
2023-02-16T14:17:24.482Z,101316.72
2023-02-16T14:19:50.980Z,101312.31
2023-02-16T14:22:20.177Z,101319.47
2023-02-16T14:24:55.784Z,101315.75
2023-02-16T14:27:58.384Z,101312.69
2023-02-16T14:30:34.051Z,101324.03
2023-02-16T14:33:12.631Z,101312.94
2023-02-16T14:35:41.857Z,101309.75
2023-02-16T14:38:18.789Z,101311.97
2023-02-16T14:40:55.421Z,101314.34
2023-02-16T14:43:41.800Z,101310.66
2023-02-16T14:46:11.631Z,101310.63
2023-02-16T14:48:58.516Z,101304.25
2023-02-16T14:51:40.453Z,101315.91
2023-02-16T14:54:41.288Z,101306.88
2023-02-16T14:57:16.671Z,101310.56
2023-02-16T15:00:02.744Z,101309.03
2023-02-16T15:02:34.044Z,101309.75
2023-02-16T15:05:21.495Z,101310.09
2023-02-16T15:07:52.269Z,101322.44
2023-02-16T15:10:27.930Z,101315.53
2023-02-16T15:12:57.923Z,101323.25
2023-02-16T15:15:42.519Z,101316.41
2023-02-16T15:18:21.283Z,101317.50
2023-02-16T15:20:53.134Z,101308.81
2023-02-16T15:23:26.448Z,101321.63
2023-02-16T15:26:03.159Z,101313.72
2023-02-16T15:28:35.920Z,101315.69
2023-02-16T15:31:06.790Z,101309.22
2023-02-16T15:33:43.913Z,101306.16
2023-02-16T15:36:14.367Z,101305.56
2023-02-16T15:38:54.025Z,101316.28
2023-02-16T15:41:35.526Z,101311.16
2023-02-16T15:44:05.054Z,101315.88
2023-02-16T15:46:40.353Z,101316.84
2023-02-16T15:49:15.120Z,101314.44
2023-02-16T15:51:43.249Z,101320.59
2023-02-16T15:54:16.575Z,101317.63
2023-02-16T15:56:48.647Z,101318.28
2023-02-16T15:59:35.185Z,101317.06
2023-02-16T16:02:11.988Z,101314.50
2023-02-16T16:04:47.375Z,101317.38
2023-02-16T16:07:24.996Z,101309.81
2023-02-16T16:09:52.298Z,101305.31
2023-02-16T16:12:20.735Z,101307.44
2023-02-16T16:14:56.120Z,101312.47
2023-02-16T16:17:31.672Z,101311.72
2023-02-16T16:20:19.106Z,101309.38
2023-02-16T16:22:45.988Z,101314.22
2023-02-16T16:25:32.663Z,101321.41
2023-02-16T16:28:00.315Z,101318.16
2023-02-16T16:30:29.722Z,101317.31
2023-02-16T16:33:05.047Z,101327.44
2023-02-16T16:35:41.313Z,101323.44
2023-02-16T16:38:33.288Z,101323.53
2023-02-16T16:41:03.653Z,101324.84
2023-02-16T16:43:34.878Z,101324.63
2023-02-16T16:46:07.516Z,101330.66
2023-02-16T16:48:37.289Z,101328.03
2023-02-16T16:51:14.552Z,101337.69
2023-02-16T16:53:50.281Z,101332.38
2023-02-16T16:56:16.926Z,101337.59
2023-02-16T16:58:43.520Z,101341.13
2023-02-16T17:01:12.933Z,101331.22
2023-02-16T17:03:39.465Z,101334.16
2023-02-16T17:06:06.963Z,101335.63
2023-02-16T17:08:33.616Z,101334.97
2023-02-16T17:11:01.311Z,101334.00
2023-02-16T17:13:28.009Z,101341.03
2023-02-16T17:16:00.650Z,101337.41
2023-02-16T17:18:27.238Z,101340.72
2023-02-16T17:20:54.028Z,101331.44
2023-02-16T17:23:22.234Z,101331.22
2023-02-16T17:25:49.499Z,101329.53
2023-02-16T17:28:18.934Z,101338.75
2023-02-16T17:30:46.126Z,101335.34
2023-02-16T17:33:12.759Z,101319.31
2023-02-16T17:35:41.839Z,101329.59
2023-02-16T17:38:13.669Z,101326.88
2023-02-16T17:40:41.346Z,101321.78
2023-02-16T17:43:13.608Z,101328.81
2023-02-16T17:45:40.627Z,101332.28
2023-02-16T17:48:07.390Z,101329.75
2023-02-16T17:50:34.250Z,101321.13
2023-02-16T17:53:00.809Z,101327.47
2023-02-16T17:55:27.609Z,101330.97
2023-02-16T17:57:55.808Z,101331.25
2023-02-16T18:00:22.851Z,101329.47
2023-02-16T18:02:49.545Z,101327.47
2023-02-16T18:05:16.284Z,101331.44
2023-02-16T18:07:42.900Z,101333.47
2023-02-16T18:10:35.181Z,101332.59
2023-02-16T18:13:02.231Z,101331.72
2023-02-16T18:15:31.626Z,101338.03
2023-02-16T18:17:59.618Z,101336.81
2023-02-16T18:20:26.743Z,101332.69
2023-02-16T18:22:54.053Z,101326.03
2023-02-16T18:25:20.930Z,101334.22
2023-02-16T18:27:47.508Z,101336.28
2023-02-16T18:30:16.250Z,101346.50
2023-02-16T18:32:43.034Z,101342.41
2023-02-16T18:35:10.789Z,101349.03
2023-02-16T18:37:38.276Z,101345.03
2023-02-16T18:40:08.546Z,101342.75
2023-02-16T18:42:35.948Z,101353.28
2023-02-16T18:45:03.082Z,101348.69
2023-02-16T18:47:29.877Z,101348.50
2023-02-16T18:49:56.499Z,101351.97
2023-02-16T18:52:23.774Z,101349.09
2023-02-16T18:54:50.708Z,101344.50
2023-02-16T18:57:17.622Z,101348.88
2023-02-16T18:59:44.244Z,101349.50
2023-02-16T19:02:12.185Z,101346.81
2023-02-16T19:04:38.972Z,101344.94
2023-02-16T19:07:05.679Z,101343.28
2023-02-16T19:09:33.653Z,101351.50
2023-02-16T19:12:00.294Z,101351.56
2023-02-16T19:14:26.896Z,101353.28
2023-02-16T19:16:53.504Z,101350.69
2023-02-16T19:19:20.307Z,101346.28
2023-02-16T19:21:46.906Z,101342.78
2023-02-16T19:24:13.738Z,101352.75
2023-02-16T19:26:40.976Z,101345.56
2023-02-16T19:29:07.630Z,101349.22
2023-02-16T19:31:35.569Z,101340.66
2023-02-16T19:34:02.487Z,101350.63
2023-02-16T19:36:31.986Z,101351.63
2023-02-16T19:38:58.845Z,101344.56
2023-02-16T19:41:37.508Z,101348.09
2023-02-16T19:44:04.427Z,101349.75
2023-02-16T19:46:32.888Z,101349.75
2023-02-16T19:49:00.303Z,101362.13
2023-02-16T19:51:27.076Z,101366.72
2023-02-16T19:53:54.250Z,101348.81
2023-02-16T19:56:24.398Z,101356.00
2023-02-16T19:58:51.235Z,101355.94
2023-02-16T20:01:21.395Z,101356.00
2023-02-16T20:03:49.584Z,101348.03
2023-02-16T20:06:19.398Z,101354.41
2023-02-16T20:08:47.216Z,101351.84
2023-02-16T20:11:14.779Z,101360.00
2023-02-16T20:13:41.448Z,101356.66
2023-02-16T20:16:10.091Z,101356.06
2023-02-16T20:18:37.776Z,101346.53
2023-02-16T20:21:07.246Z,101363.69
2023-02-16T20:23:34.593Z,101364.81
2023-02-16T20:26:06.216Z,101362.41
2023-02-16T20:28:33.939Z,101358.88
2023-02-16T20:31:01.041Z,101354.66
2023-02-16T20:33:28.059Z,101363.06
2023-02-16T20:35:54.654Z,101365.94
2023-02-16T20:38:21.270Z,101361.78
2023-02-16T20:40:47.872Z,101358.25
2023-02-16T20:43:15.646Z,101360.16
2023-02-16T20:45:43.041Z,101363.25
2023-02-16T20:48:10.544Z,101362.63
2023-02-16T20:50:37.448Z,101357.50
2023-02-16T20:53:04.499Z,101354.94
2023-02-16T20:55:31.951Z,101357.97
2023-02-16T20:58:00.022Z,101359.81
2023-02-16T21:00:27.702Z,101357.63
2023-02-16T21:02:54.476Z,101361.94
2023-02-16T21:05:22.478Z,101350.63
2023-02-16T21:07:49.986Z,101349.97
2023-02-16T21:10:16.744Z,101346.56
2023-02-16T21:12:43.386Z,101346.88
2023-02-16T21:15:10.243Z,101340.66
2023-02-16T21:17:37.418Z,101340.66
2023-02-16T21:20:06.781Z,101338.75
2023-02-16T21:22:33.584Z,101341.44
2023-02-16T21:25:01.313Z,101338.78
2023-02-16T21:27:27.940Z,101349.34
2023-02-16T21:29:54.557Z,101351.03
2023-02-16T21:32:21.145Z,101348.44
2023-02-16T21:34:47.735Z,101341.63
2023-02-16T21:37:14.366Z,101343.00
2023-02-16T21:39:59.288Z,101341.97
2023-02-16T21:42:25.892Z,101342.56
2023-02-16T21:45:12.383Z,101336.03
2023-02-16T21:48:02.537Z,101335.28
2023-02-16T21:50:31.124Z,101334.94
2023-02-16T21:52:59.779Z,101346.00
2023-02-16T21:55:46.157Z,101342.38
2023-02-16T21:58:12.727Z,101339.38
2023-02-16T22:00:39.467Z,101345.44
2023-02-16T22:03:06.347Z,101338.34
2023-02-16T22:05:34.793Z,101339.16
2023-02-16T22:08:02.190Z,101340.78
2023-02-16T22:10:29.184Z,101332.84
2023-02-16T22:12:57.245Z,101335.50
2023-02-16T22:15:24.140Z,101335.59
2023-02-16T22:17:50.660Z,101333.81
2023-02-16T22:20:19.022Z,101336.41
2023-02-16T22:22:45.642Z,101335.50
2023-02-16T22:25:13.712Z,101331.00
2023-02-16T22:27:40.820Z,101334.34
2023-02-16T22:30:08.239Z,101333.44
2023-02-16T22:32:34.945Z,101326.41
2023-02-16T22:35:01.674Z,101327.16
2023-02-16T22:37:28.315Z,101314.66
2023-02-16T22:39:55.236Z,101310.91
2023-02-16T22:42:22.657Z,101310.81
2023-02-16T22:44:49.228Z,101306.69
2023-02-16T22:47:15.804Z,101315.16
2023-02-16T22:49:42.393Z,101307.50
2023-02-16T22:52:11.633Z,101311.50
2023-02-16T22:54:38.705Z,101305.56
2023-02-16T22:57:07.189Z,101298.13
2023-02-16T22:59:34.010Z,101301.63
2023-02-16T23:02:00.636Z,101303.75
2023-02-16T23:04:27.291Z,101308.78
2023-02-16T23:06:53.881Z,101306.81
2023-02-16T23:09:22.051Z,101302.31
2023-02-16T23:11:49.517Z,101304.25
2023-02-16T23:14:16.768Z,101300.97
2023-02-16T23:16:45.431Z,101307.63
2023-02-16T23:19:17.606Z,101299.19
2023-02-16T23:21:44.854Z,101294.72
2023-02-16T23:24:17.565Z,101299.94
2023-02-16T23:26:44.467Z,101306.22
2023-02-16T23:29:11.384Z,101305.19
2023-02-16T23:31:40.455Z,101296.13
2023-02-16T23:34:07.991Z,101296.13
2023-02-16T23:36:36.480Z,101296.34
2023-02-16T23:39:07.050Z,101294.72
2023-02-16T23:41:33.767Z,101295.00
2023-02-16T23:44:01.291Z,101299.44
2023-02-16T23:46:28.812Z,101305.66
2023-02-16T23:48:55.537Z,101310.31
2023-02-16T23:51:22.480Z,101306.19
2023-02-16T23:53:49.477Z,101316.13
2023-02-16T23:56:21.926Z,101313.59
2023-02-16T23:58:49.418Z,101318.78
